createdAt,value
2018-02-11T00:00:10.220Z,1001.84
2018-02-11T00:01:10.209Z,1001.80
2018-02-11T00:02:10.216Z,1001.78
2018-02-11T00:03:10.214Z,1001.79
2018-02-11T00:04:10.229Z,1001.76
2018-02-11T00:05:10.202Z,1001.72
2018-02-11T00:06:10.243Z,1001.72
2018-02-11T00:07:10.200Z,1001.65
2018-02-11T00:08:10.194Z,1001.63
2018-02-11T00:09:10.215Z,1001.61
2018-02-11T00:10:10.203Z,1001.60
2018-02-11T00:11:10.235Z,1001.58
2018-02-11T00:12:10.192Z,1001.52
2018-02-11T00:13:10.193Z,1001.54
2018-02-11T00:14:10.223Z,1001.53
2018-02-11T00:15:10.170Z,1001.50
2018-02-11T00:16:10.215Z,1001.49
2018-02-11T00:17:10.203Z,1001.47
2018-02-11T00:18:10.178Z,1001.47
2018-02-11T00:19:10.176Z,1001.50
2018-02-11T00:20:10.168Z,1001.46
2018-02-11T00:21:10.163Z,1001.41
2018-02-11T00:22:10.198Z,1001.43
2018-02-11T00:23:10.153Z,1001.37
2018-02-11T00:24:10.194Z,1001.35
2018-02-11T00:25:10.211Z,1001.33
2018-02-11T00:26:10.164Z,1001.30
2018-02-11T00:27:10.149Z,1001.25
2018-02-11T00:28:10.166Z,1001.23
2018-02-11T00:29:10.157Z,1001.17
2018-02-11T00:30:10.182Z,1001.15
2018-02-11T00:31:10.153Z,1001.09
2018-02-11T00:32:10.143Z,1001.09
2018-02-11T00:33:10.152Z,1001.07
2018-02-11T00:34:10.156Z,1001.09
2018-02-11T00:35:10.135Z,1001.06
2018-02-11T00:36:10.191Z,1001.02
2018-02-11T00:37:10.129Z,1001.05
2018-02-11T00:38:10.136Z,1001.06
2018-02-11T00:39:10.159Z,1000.99
2018-02-11T00:40:10.152Z,1001.04
2018-02-11T00:41:10.136Z,1000.96
2018-02-11T00:42:10.119Z,1000.98
2018-02-11T00:43:10.132Z,1000.95
2018-02-11T00:44:10.118Z,1000.99
2018-02-11T00:45:10.099Z,1000.93
2018-02-11T00:46:10.106Z,1000.97
2018-02-11T00:47:10.095Z,1000.92
2018-02-11T00:48:10.165Z,1000.91
2018-02-11T00:49:10.107Z,1000.86
2018-02-11T00:50:10.081Z,1000.88
2018-02-11T00:51:10.086Z,1000.76
2018-02-11T00:52:10.087Z,1000.81
2018-02-11T00:53:10.094Z,1000.78
2018-02-11T00:54:10.109Z,1000.78
2018-02-11T00:55:10.076Z,1000.80
2018-02-11T00:56:10.072Z,1000.78
2018-02-11T00:57:10.092Z,1000.72
2018-02-11T00:58:10.073Z,1000.72
2018-02-11T00:59:10.080Z,1000.79
2018-02-11T01:00:10.094Z,1000.69
2018-02-11T01:01:10.062Z,1000.68
2018-02-11T01:02:10.094Z,1000.68
2018-02-11T01:03:10.054Z,1000.70
2018-02-11T01:04:10.069Z,1000.66
2018-02-11T01:05:10.059Z,1000.62
2018-02-11T01:06:10.047Z,1000.63
2018-02-11T01:07:10.061Z,1000.52
2018-02-11T01:08:10.045Z,1000.54
2018-02-11T01:09:10.041Z,1000.44
2018-02-11T01:10:10.038Z,1000.44
2018-02-11T01:11:10.194Z,1000.47
2018-02-11T01:12:10.033Z,1000.40
2018-02-11T01:13:10.028Z,1000.37
2018-02-11T01:14:10.033Z,1000.40
2018-02-11T01:15:10.031Z,1000.39
2018-02-11T01:16:10.028Z,1000.37
2018-02-11T01:17:10.024Z,1000.30
2018-02-11T01:18:10.017Z,1000.33
2018-02-11T01:19:10.012Z,1000.26
2018-02-11T01:20:10.018Z,1000.23
2018-02-11T01:21:10.030Z,1000.17
2018-02-11T01:22:10.015Z,1000.17
2018-02-11T01:23:10.005Z,1000.19
2018-02-11T01:24:10.003Z,1000.08
2018-02-11T01:25:10.031Z,1000.08
2018-02-11T01:26:09.999Z,1000.07
2018-02-11T01:27:10.050Z,1000.04
2018-02-11T01:28:10.021Z,1000.01
2018-02-11T01:29:09.986Z,1000.00
2018-02-11T01:30:09.986Z,1000.00
2018-02-11T01:31:09.982Z,1000.05
2018-02-11T01:32:09.986Z,999.94
2018-02-11T01:33:09.987Z,999.92
2018-02-11T01:34:10.050Z,999.91
2018-02-11T01:35:09.996Z,999.83
2018-02-11T01:36:09.981Z,999.84
2018-02-11T01:37:10.003Z,999.82
2018-02-11T01:38:09.985Z,999.84
2018-02-11T01:39:09.976Z,999.78
2018-02-11T01:40:09.967Z,999.79
2018-02-11T01:41:09.982Z,999.72
2018-02-11T01:42:10.066Z,999.74
2018-02-11T01:43:09.972Z,999.72
2018-02-11T01:44:09.956Z,999.70
2018-02-11T01:45:09.964Z,999.63
2018-02-11T01:46:09.971Z,999.66
2018-02-11T01:47:09.945Z,999.59
2018-02-11T01:48:09.974Z,999.60
2018-02-11T01:49:09.945Z,999.52
2018-02-11T01:50:09.947Z,999.57
2018-02-11T01:51:09.927Z,999.56
2018-02-11T01:52:09.930Z,999.55
2018-02-11T01:53:09.930Z,999.56
2018-02-11T01:54:09.962Z,999.46
2018-02-11T01:55:09.932Z,999.43
2018-02-11T01:56:09.941Z,999.43
2018-02-11T01:57:09.939Z,999.42
2018-02-11T01:58:09.942Z,999.34
2018-02-11T01:59:09.937Z,999.37
2018-02-11T02:00:09.915Z,999.32
2018-02-11T02:01:09.940Z,999.26
2018-02-11T02:02:09.895Z,999.29
2018-02-11T02:03:09.910Z,999.25
2018-02-11T02:04:09.902Z,999.23
2018-02-11T02:05:09.907Z,999.20
2018-02-11T02:06:09.911Z,999.13
2018-02-11T02:07:09.908Z,999.15
2018-02-11T02:08:09.910Z,999.02
2018-02-11T02:09:09.910Z,998.93
2018-02-11T02:10:09.916Z,998.79
2018-02-11T02:11:09.965Z,998.92
2018-02-11T02:12:09.902Z,998.81
2018-02-11T02:13:09.873Z,998.77
2018-02-11T02:14:09.882Z,998.74
2018-02-11T02:15:09.921Z,998.67
2018-02-11T02:16:09.876Z,998.56
2018-02-11T02:17:09.926Z,998.54
2018-02-11T02:18:09.889Z,998.60
2018-02-11T02:19:09.863Z,998.66
2018-02-11T02:20:09.878Z,998.51
2018-02-11T02:21:09.862Z,998.42
2018-02-11T02:22:09.876Z,998.53
2018-02-11T02:23:09.914Z,998.28
2018-02-11T02:24:09.937Z,998.38
2018-02-11T02:25:09.863Z,998.38
2018-02-11T02:26:09.898Z,998.33
2018-02-11T02:27:09.839Z,998.22
2018-02-11T02:28:09.862Z,998.36
2018-02-11T02:29:09.844Z,998.30
2018-02-11T02:30:09.858Z,998.26
2018-02-11T02:31:09.876Z,998.24
2018-02-11T02:32:09.861Z,998.27
2018-02-11T02:33:09.847Z,998.25
2018-02-11T02:34:09.842Z,998.19
2018-02-11T02:35:09.824Z,998.21
2018-02-11T02:36:09.840Z,998.11
2018-02-11T02:37:09.891Z,998.14
2018-02-11T02:38:09.825Z,998.18
2018-02-11T02:39:09.828Z,998.00
2018-02-11T02:40:09.809Z,997.95
2018-02-11T02:41:09.811Z,997.83
2018-02-11T02:42:09.797Z,997.82
2018-02-11T02:43:09.796Z,997.77
2018-02-11T02:44:09.792Z,997.71
2018-02-11T02:45:09.788Z,997.67
2018-02-11T02:46:09.809Z,997.60
2018-02-11T02:47:09.788Z,997.64
2018-02-11T02:48:09.784Z,997.65
2018-02-11T02:49:09.779Z,997.63
2018-02-11T02:50:09.790Z,997.42
2018-02-11T02:51:09.795Z,997.49
2018-02-11T02:52:09.800Z,997.51
2018-02-11T02:53:09.785Z,997.34
2018-02-11T02:54:09.766Z,997.25
2018-02-11T02:55:09.760Z,997.38
2018-02-11T02:56:09.774Z,997.31
2018-02-11T02:57:09.759Z,997.31
2018-02-11T02:58:09.768Z,997.24
2018-02-11T02:59:09.836Z,997.18
2018-02-11T03:00:09.748Z,997.20
2018-02-11T03:01:09.749Z,997.13
2018-02-11T03:02:09.751Z,997.03
2018-02-11T03:03:09.738Z,996.97
2018-02-11T03:04:09.735Z,996.87
2018-02-11T03:05:09.731Z,996.84
2018-02-11T03:06:09.735Z,996.81
2018-02-11T03:07:09.730Z,996.71
2018-02-11T03:08:09.732Z,996.64
2018-02-11T03:09:09.722Z,996.68
2018-02-11T03:10:09.727Z,996.55
2018-02-11T03:11:09.782Z,996.50
2018-02-11T03:12:09.743Z,996.56
2018-02-11T03:13:09.727Z,996.59
2018-02-11T03:14:09.784Z,996.56
2018-02-11T03:15:09.705Z,996.50
2018-02-11T03:16:09.712Z,996.42
2018-02-11T03:17:09.697Z,996.41
2018-02-11T03:18:09.707Z,996.44
2018-02-11T03:19:09.689Z,996.32
2018-02-11T03:20:09.695Z,996.41
2018-02-11T03:21:09.692Z,996.26
2018-02-11T03:22:09.702Z,996.21
2018-02-11T03:23:09.689Z,996.18
2018-02-11T03:24:09.745Z,996.12
2018-02-11T03:25:09.696Z,996.13
2018-02-11T03:26:09.678Z,996.14
2018-02-11T03:27:09.847Z,996.22
2018-02-11T03:28:09.684Z,996.08
2018-02-11T03:29:09.686Z,996.06
2018-02-11T03:30:09.671Z,996.08
2018-02-11T03:31:09.675Z,995.96
2018-02-11T03:32:09.658Z,995.94
2018-02-11T03:33:09.663Z,995.93
2018-02-11T03:34:09.657Z,995.84
2018-02-11T03:35:09.647Z,995.90
2018-02-11T03:36:09.650Z,995.89
2018-02-11T03:37:09.653Z,995.86
2018-02-11T03:38:09.643Z,995.79
2018-02-11T03:39:09.635Z,995.79
2018-02-11T03:40:09.634Z,995.80
2018-02-11T03:41:09.630Z,995.75
2018-02-11T03:42:12.847Z,995.73
2018-02-11T03:43:09.632Z,995.67
2018-02-11T03:44:09.647Z,995.67
2018-02-11T03:45:09.620Z,995.62
2018-02-11T03:46:09.635Z,995.62
2018-02-11T03:47:09.617Z,995.66
2018-02-11T03:48:09.646Z,995.56
2018-02-11T03:49:09.631Z,995.63
2018-02-11T03:50:09.609Z,995.60
2018-02-11T03:51:09.611Z,995.53
2018-02-11T03:52:09.647Z,995.49
2018-02-11T03:53:09.634Z,995.51
2018-02-11T03:54:09.602Z,995.51
2018-02-11T03:55:09.699Z,995.51
2018-02-11T03:56:09.588Z,995.49
2018-02-11T03:57:09.599Z,995.43
2018-02-11T03:58:09.604Z,995.42
2018-02-11T03:59:09.584Z,995.43
2018-02-11T04:00:09.577Z,995.42
2018-02-11T04:01:09.588Z,995.42
2018-02-11T04:02:09.579Z,995.40
2018-02-11T04:03:09.580Z,995.38
2018-02-11T04:04:09.574Z,995.40
2018-02-11T04:05:09.559Z,995.38
2018-02-11T04:06:09.564Z,995.38
2018-02-11T04:07:09.554Z,995.34
2018-02-11T04:08:09.563Z,995.30
2018-02-11T04:09:09.555Z,995.33
2018-02-11T04:10:09.556Z,995.33
2018-02-11T04:11:09.549Z,995.29
2018-02-11T04:12:09.557Z,995.27
2018-02-11T04:13:09.540Z,995.28
2018-02-11T04:14:09.548Z,995.22
2018-02-11T04:15:09.534Z,995.27
2018-02-11T04:16:09.545Z,995.22
2018-02-11T04:17:09.528Z,995.15
2018-02-11T04:18:09.531Z,995.13
2018-02-11T04:19:09.542Z,995.11
2018-02-11T04:20:09.575Z,995.05
2018-02-11T04:21:09.531Z,995.02
2018-02-11T04:22:09.517Z,995.00
2018-02-11T04:23:09.513Z,995.00
2018-02-11T04:24:09.522Z,994.96
2018-02-11T04:25:09.522Z,994.92
2018-02-11T04:26:09.501Z,994.91
2018-02-11T04:27:09.519Z,994.88
2018-02-11T04:28:09.522Z,994.87
2018-02-11T04:29:09.510Z,994.85
2018-02-11T04:30:09.506Z,994.89
2018-02-11T04:31:09.493Z,994.80
2018-02-11T04:32:09.502Z,994.84
2018-02-11T04:33:09.494Z,994.81
2018-02-11T04:34:09.486Z,994.74
2018-02-11T04:35:09.526Z,994.74
2018-02-11T04:36:09.496Z,994.70
2018-02-11T04:37:09.473Z,994.71
2018-02-11T04:38:09.604Z,994.73
2018-02-11T04:39:09.474Z,994.66
2018-02-11T04:40:09.478Z,994.62
2018-02-11T04:41:09.467Z,994.56
2018-02-11T04:42:09.572Z,994.56
2018-02-11T04:43:09.459Z,994.57
2018-02-11T04:44:09.458Z,994.55
2018-02-11T04:45:09.460Z,994.52
2018-02-11T04:46:09.462Z,994.49
2018-02-11T04:47:09.485Z,994.44
2018-02-11T04:48:09.445Z,994.44
2018-02-11T04:49:09.441Z,994.35
2018-02-11T04:50:09.455Z,994.37
2018-02-11T04:51:09.445Z,994.33
2018-02-11T04:52:09.462Z,994.26
2018-02-11T04:53:09.451Z,994.27
2018-02-11T04:54:09.425Z,994.23
2018-02-11T04:55:09.452Z,994.22
2018-02-11T04:56:09.434Z,994.25
2018-02-11T04:57:09.503Z,994.23
2018-02-11T04:58:09.434Z,994.13
2018-02-11T04:59:09.443Z,994.18
2018-02-11T05:00:09.434Z,994.16
2018-02-11T05:01:09.476Z,994.14
2018-02-11T05:02:09.417Z,994.11
2018-02-11T05:03:09.408Z,994.06
2018-02-11T05:04:09.409Z,994.00
2018-02-11T05:05:09.405Z,993.95
2018-02-11T05:06:09.459Z,993.94
2018-02-11T05:07:09.405Z,993.91
2018-02-11T05:08:09.923Z,993.89
2018-02-11T05:09:09.398Z,993.93
2018-02-11T05:10:09.394Z,993.84
2018-02-11T05:11:09.420Z,993.83
2018-02-11T05:12:09.423Z,993.79
2018-02-11T05:13:09.470Z,993.74
2018-02-11T05:14:09.390Z,993.71
2018-02-11T05:15:09.392Z,993.70
2018-02-11T05:16:09.377Z,993.75
2018-02-11T05:17:09.393Z,993.60
2018-02-11T05:18:09.377Z,993.59
2018-02-11T05:19:09.378Z,993.60
2018-02-11T05:20:09.378Z,993.59
2018-02-11T05:21:09.370Z,993.56
2018-02-11T05:22:09.379Z,993.56
2018-02-11T05:23:09.361Z,993.57
2018-02-11T05:24:09.357Z,993.48
2018-02-11T05:25:09.357Z,993.53
2018-02-11T05:26:09.361Z,993.51
2018-02-11T05:27:09.364Z,993.49
2018-02-11T05:28:09.366Z,993.49
2018-02-11T05:29:09.440Z,993.53
2018-02-11T05:30:09.380Z,993.53
2018-02-11T05:31:09.372Z,993.46
2018-02-11T05:32:09.339Z,993.50
2018-02-11T05:33:09.338Z,993.52
2018-02-11T05:34:09.323Z,993.46
2018-02-11T05:35:09.328Z,993.44
2018-02-11T05:36:09.329Z,993.46
2018-02-11T05:37:09.326Z,993.45
2018-02-11T05:38:09.330Z,993.43
2018-02-11T05:39:09.323Z,993.36
2018-02-11T05:40:09.317Z,993.37
2018-02-11T05:41:09.326Z,993.31
2018-02-11T05:42:09.924Z,993.34
2018-02-11T05:43:09.325Z,993.29
2018-02-11T05:44:09.310Z,993.25
2018-02-11T05:45:09.337Z,993.16
2018-02-11T05:46:09.303Z,993.23
2018-02-11T05:47:09.296Z,993.26
2018-02-11T05:48:09.330Z,993.25
2018-02-11T05:49:09.316Z,993.19
2018-02-11T05:50:09.529Z,993.12
2018-02-11T05:51:09.292Z,993.09
2018-02-11T05:52:09.277Z,993.03
2018-02-11T05:53:09.286Z,993.06
2018-02-11T05:54:09.927Z,993.04
2018-02-11T05:55:09.405Z,993.05
2018-02-11T05:56:09.310Z,992.97
2018-02-11T05:57:09.271Z,992.95
2018-02-11T05:58:09.265Z,992.93
2018-02-11T05:59:09.269Z,993.00
2018-02-11T06:00:09.268Z,993.01
2018-02-11T06:01:09.293Z,992.92
2018-02-11T06:02:09.257Z,992.90
2018-02-11T06:03:09.259Z,992.89
2018-02-11T06:04:09.268Z,992.81
2018-02-11T06:05:09.252Z,992.86
2018-02-11T06:06:09.294Z,992.77
2018-02-11T06:07:09.253Z,992.84
2018-02-11T06:08:09.240Z,992.75
2018-02-11T06:09:09.239Z,992.94
2018-02-11T06:10:09.262Z,992.79
2018-02-11T06:11:09.258Z,992.84
2018-02-11T06:12:09.233Z,992.80
2018-02-11T06:13:09.228Z,992.75
2018-02-11T06:14:09.235Z,992.70
2018-02-11T06:15:09.287Z,992.67
2018-02-11T06:16:09.228Z,992.75
2018-02-11T06:17:09.215Z,992.76
2018-02-11T06:18:09.226Z,992.85
2018-02-11T06:19:09.254Z,992.78
2018-02-11T06:20:09.218Z,992.76
2018-02-11T06:21:09.242Z,992.75
2018-02-11T06:22:09.212Z,992.74
2018-02-11T06:23:09.252Z,992.66
2018-02-11T06:24:09.206Z,992.73
2018-02-11T06:25:10.051Z,992.66
2018-02-11T06:26:09.197Z,992.69
2018-02-11T06:27:09.209Z,992.73
2018-02-11T06:28:09.190Z,992.57
2018-02-11T06:29:09.936Z,992.64
2018-02-11T06:30:09.943Z,992.52
2018-02-11T06:31:09.192Z,992.53
2018-02-11T06:32:09.235Z,992.59
2018-02-11T06:33:09.182Z,992.45
2018-02-11T06:34:09.174Z,992.54
2018-02-11T06:35:09.169Z,992.54
2018-02-11T06:36:09.171Z,992.59
2018-02-11T06:37:09.173Z,992.64
2018-02-11T06:38:09.174Z,992.62
2018-02-11T06:39:09.183Z,992.54
2018-02-11T06:40:09.155Z,992.62
2018-02-11T06:41:09.147Z,992.60
2018-02-11T06:42:09.203Z,992.56
2018-02-11T06:43:09.152Z,992.65
2018-02-11T06:44:09.152Z,992.59
2018-02-11T06:45:09.191Z,992.66
2018-02-11T06:46:09.161Z,992.59
2018-02-11T06:47:09.149Z,992.70
2018-02-11T06:48:09.158Z,992.65
2018-02-11T06:49:09.128Z,992.72
2018-02-11T06:50:09.134Z,992.63
2018-02-11T06:51:09.168Z,992.72
2018-02-11T06:52:09.139Z,992.70
2018-02-11T06:53:09.127Z,992.74
2018-02-11T06:54:09.123Z,992.73
2018-02-11T06:55:09.938Z,992.78
2018-02-11T06:56:09.117Z,992.65
2018-02-11T06:57:09.126Z,992.75
2018-02-11T06:58:09.111Z,992.75
2018-02-11T06:59:09.141Z,992.78
2018-02-11T07:00:09.148Z,992.75
2018-02-11T07:01:09.112Z,992.78
2018-02-11T07:02:09.100Z,992.82
2018-02-11T07:03:09.112Z,992.87
2018-02-11T07:04:09.112Z,992.80
2018-02-11T07:05:09.102Z,992.84
2018-02-11T07:06:09.092Z,992.79
2018-02-11T07:07:09.099Z,992.88
2018-02-11T07:08:10.999Z,992.85
2018-02-11T07:09:09.086Z,992.90
2018-02-11T07:10:09.082Z,992.89
2018-02-11T07:11:09.076Z,992.93
2018-02-11T07:12:09.085Z,992.82
2018-02-11T07:13:09.085Z,992.86
2018-02-11T07:14:09.073Z,992.81
2018-02-11T07:15:09.069Z,992.80
2018-02-11T07:16:09.111Z,992.83
2018-02-11T07:17:09.096Z,992.76
2018-02-11T07:18:09.073Z,992.77
2018-02-11T07:19:09.067Z,992.85
2018-02-11T07:20:09.066Z,992.87
2018-02-11T07:21:09.054Z,992.90
2018-02-11T07:22:09.046Z,992.94
2018-02-11T07:23:09.043Z,992.90
2018-02-11T07:24:10.263Z,992.87
2018-02-11T07:25:09.047Z,992.91
2018-02-11T07:26:09.054Z,992.85
2018-02-11T07:27:09.044Z,992.82
2018-02-11T07:28:09.030Z,992.87
2018-02-11T07:29:09.030Z,992.94
2018-02-11T07:30:09.050Z,992.93
2018-02-11T07:31:09.091Z,992.89
2018-02-11T07:32:09.037Z,992.97
2018-02-11T07:33:09.035Z,992.95
2018-02-11T07:34:09.032Z,992.90
2018-02-11T07:35:09.016Z,992.95
2018-02-11T07:36:09.019Z,992.86
2018-02-11T07:37:09.023Z,992.88
2018-02-11T07:38:09.027Z,992.89
2018-02-11T07:39:09.947Z,992.89
2018-02-11T07:40:09.008Z,992.93
2018-02-11T07:41:09.005Z,992.95
2018-02-11T07:42:09.099Z,992.93
2018-02-11T07:43:09.031Z,992.97
2018-02-11T07:44:09.002Z,992.92
2018-02-11T07:45:08.988Z,992.99
2018-02-11T07:46:09.013Z,992.93
2018-02-11T07:47:08.994Z,992.95
2018-02-11T07:48:09.013Z,993.00
2018-02-11T07:49:08.991Z,992.93
2018-02-11T07:50:09.007Z,992.99
2018-02-11T07:51:08.980Z,992.95
2018-02-11T07:52:08.976Z,992.96
2018-02-11T07:53:08.980Z,993.00
2018-02-11T07:54:08.992Z,992.94
2018-02-11T07:55:09.000Z,993.02
2018-02-11T07:56:08.964Z,992.96
2018-02-11T07:57:08.964Z,993.03
2018-02-11T07:58:09.026Z,993.02
2018-02-11T07:59:08.973Z,993.09
2018-02-11T08:00:09.440Z,993.12
2018-02-11T08:01:08.966Z,993.05
2018-02-11T08:02:08.952Z,993.10
2018-02-11T08:03:08.967Z,993.02
2018-02-11T08:04:08.949Z,993.04
2018-02-11T08:05:08.943Z,993.06
2018-02-11T08:06:08.953Z,993.02
2018-02-11T08:07:08.968Z,993.10
2018-02-11T08:08:08.939Z,993.09
2018-02-11T08:09:08.948Z,993.07
2018-02-11T08:10:08.971Z,993.09
2018-02-11T08:11:09.008Z,993.13
2018-02-11T08:12:08.948Z,993.14
2018-02-11T08:13:08.918Z,993.14
2018-02-11T08:14:08.926Z,993.08
2018-02-11T08:15:08.926Z,993.06
2018-02-11T08:16:08.926Z,993.06
2018-02-11T08:17:08.936Z,992.99
2018-02-11T08:18:08.922Z,993.01
2018-02-11T08:19:08.910Z,993.00
2018-02-11T08:20:08.903Z,993.01
2018-02-11T08:21:08.900Z,993.05
2018-02-11T08:22:08.914Z,993.10
2018-02-11T08:23:08.923Z,993.08
2018-02-11T08:24:08.897Z,993.10
2018-02-11T08:25:08.943Z,993.08
2018-02-11T08:26:08.974Z,993.12
2018-02-11T08:27:08.892Z,993.06
2018-02-11T08:28:08.900Z,993.12
2018-02-11T08:29:08.925Z,993.11
2018-02-11T08:30:08.900Z,993.07
2018-02-11T08:31:08.873Z,993.04
2018-02-11T08:32:08.873Z,993.02
2018-02-11T08:33:08.875Z,993.05
2018-02-11T08:34:08.895Z,993.04
2018-02-11T08:35:08.894Z,993.07
2018-02-11T08:36:08.864Z,993.00
2018-02-11T08:37:08.862Z,993.01
2018-02-11T08:38:08.875Z,993.06
2018-02-11T08:39:08.870Z,993.07
2018-02-11T08:40:08.863Z,993.03
2018-02-11T08:41:08.863Z,992.98
2018-02-11T08:42:08.852Z,993.02
2018-02-11T08:43:08.855Z,992.98
2018-02-11T08:44:08.848Z,993.01
2018-02-11T08:45:08.849Z,992.90
2018-02-11T08:46:08.853Z,992.90
2018-02-11T08:47:08.860Z,992.93
2018-02-11T08:48:08.878Z,992.93
2018-02-11T08:49:08.847Z,992.86
2018-02-11T08:50:08.854Z,992.87
2018-02-11T08:51:08.860Z,992.97
2018-02-11T08:52:08.827Z,992.97
2018-02-11T08:53:08.831Z,992.95
2018-02-11T08:54:08.832Z,992.95
2018-02-11T08:55:08.836Z,993.01
2018-02-11T08:56:08.828Z,992.94
2018-02-11T08:57:08.858Z,992.95
2018-02-11T08:58:08.823Z,992.96
2018-02-11T08:59:08.834Z,992.98
2018-02-11T09:00:09.459Z,993.04
2018-02-11T09:01:08.827Z,992.98
2018-02-11T09:02:08.812Z,993.00
2018-02-11T09:03:08.806Z,992.94
2018-02-11T09:04:08.812Z,993.03
2018-02-11T09:05:08.807Z,993.03
2018-02-11T09:06:08.816Z,993.06
2018-02-11T09:07:08.802Z,993.07
2018-02-11T09:08:08.797Z,993.06
2018-02-11T09:09:08.795Z,993.05
2018-02-11T09:10:08.808Z,993.10
2018-02-11T09:11:08.785Z,993.08
2018-02-11T09:12:08.788Z,993.06
2018-02-11T09:13:08.781Z,993.01
2018-02-11T09:14:08.782Z,993.01
2018-02-11T09:15:08.776Z,993.00
2018-02-11T09:16:08.800Z,993.04
2018-02-11T09:17:08.788Z,993.03
2018-02-11T09:18:08.768Z,993.09
2018-02-11T09:19:08.775Z,993.07
2018-02-11T09:20:08.785Z,993.09
2018-02-11T09:21:08.779Z,993.06
2018-02-11T09:22:08.766Z,993.06
2018-02-11T09:23:08.760Z,993.02
2018-02-11T09:24:08.763Z,993.01
2018-02-11T09:25:08.800Z,993.03
2018-02-11T09:26:08.759Z,993.02
2018-02-11T09:27:11.537Z,993.07
2018-02-11T09:28:08.759Z,993.06
2018-02-11T09:29:08.762Z,993.09
2018-02-11T09:30:08.752Z,993.03
2018-02-11T09:31:08.754Z,993.03
2018-02-11T09:32:08.745Z,993.11
2018-02-11T09:33:08.748Z,993.10
2018-02-11T09:34:08.753Z,993.07
2018-02-11T09:35:08.753Z,993.05
2018-02-11T09:36:08.740Z,993.09
2018-02-11T09:37:08.750Z,993.08
2018-02-11T09:38:08.750Z,993.13
2018-02-11T09:39:08.741Z,993.12
2018-02-11T09:40:08.731Z,993.11
2018-02-11T09:41:08.735Z,993.10
2018-02-11T09:42:08.744Z,993.11
2018-02-11T09:43:08.745Z,993.10
2018-02-11T09:44:08.763Z,993.06
2018-02-11T09:45:08.738Z,993.06
2018-02-11T09:46:08.731Z,993.06
2018-02-11T09:47:08.728Z,993.12
2018-02-11T09:48:08.718Z,993.16
2018-02-11T09:49:08.735Z,993.16
2018-02-11T09:50:08.749Z,993.18
2018-02-11T09:51:08.750Z,993.21
2018-02-11T09:52:08.708Z,993.22
2018-02-11T09:53:08.720Z,993.20
2018-02-11T09:54:08.707Z,993.17
2018-02-11T09:55:08.728Z,993.08
2018-02-11T09:56:08.707Z,993.12
2018-02-11T09:57:08.718Z,993.14
2018-02-11T09:58:08.712Z,993.18
2018-02-11T09:59:08.704Z,993.21
2018-02-11T10:00:09.463Z,993.20
2018-02-11T10:01:08.695Z,993.18
2018-02-11T10:02:08.691Z,993.23
2018-02-11T10:03:08.689Z,993.17
2018-02-11T10:04:08.807Z,993.16
2018-02-11T10:05:08.687Z,993.13
2018-02-11T10:06:08.714Z,993.23
2018-02-11T10:07:08.700Z,993.24
2018-02-11T10:08:08.701Z,993.27
2018-02-11T10:09:08.748Z,993.36
2018-02-11T10:10:08.679Z,993.32
2018-02-11T10:11:08.691Z,993.32
2018-02-11T10:12:08.691Z,993.31
2018-02-11T10:13:08.689Z,993.38
2018-02-11T10:14:08.684Z,993.41
2018-02-11T10:15:08.667Z,993.36
2018-02-11T10:16:08.674Z,993.41
2018-02-11T10:17:08.701Z,993.39
2018-02-11T10:18:08.680Z,993.40
2018-02-11T10:19:08.673Z,993.35
2018-02-11T10:20:08.665Z,993.28
2018-02-11T10:21:08.687Z,993.32
2018-02-11T10:22:08.661Z,993.33
2018-02-11T10:23:08.674Z,993.28
2018-02-11T10:24:08.670Z,993.28
2018-02-11T10:25:08.668Z,993.33
2018-02-11T10:26:08.657Z,993.46
2018-02-11T10:27:09.119Z,993.32
2018-02-11T10:28:08.656Z,993.35
2018-02-11T10:29:08.666Z,993.44
2018-02-11T10:30:08.650Z,993.51
2018-02-11T10:31:09.471Z,993.37
2018-02-11T10:32:08.654Z,993.34
2018-02-11T10:33:08.645Z,993.38
2018-02-11T10:34:08.641Z,993.32
2018-02-11T10:35:08.656Z,993.37
2018-02-11T10:36:08.652Z,993.42
2018-02-11T10:37:08.664Z,993.55
2018-02-11T10:38:08.650Z,993.55
2018-02-11T10:39:08.669Z,993.64
2018-02-11T10:40:08.631Z,993.58
2018-02-11T10:41:08.642Z,993.47
2018-02-11T10:42:08.645Z,993.55
2018-02-11T10:43:08.642Z,993.83
2018-02-11T10:44:09.472Z,993.61
2018-02-11T10:45:08.660Z,993.70
2018-02-11T10:46:08.628Z,993.55
2018-02-11T10:47:08.704Z,993.51
2018-02-11T10:48:08.635Z,993.51
2018-02-11T10:49:08.644Z,993.55
2018-02-11T10:50:08.645Z,993.50
2018-02-11T10:51:08.671Z,993.54
2018-02-11T10:52:08.672Z,993.49
2018-02-11T10:53:08.656Z,993.46
2018-02-11T10:54:08.623Z,993.49
2018-02-11T10:55:08.624Z,993.53
2018-02-11T10:56:08.661Z,993.56
2018-02-11T10:57:08.623Z,993.59
2018-02-11T10:58:08.662Z,993.64
2018-02-11T10:59:08.619Z,993.58
2018-02-11T11:00:08.703Z,993.65
2018-02-11T11:01:08.625Z,993.54
2018-02-11T11:02:08.618Z,993.59
2018-02-11T11:03:08.619Z,993.69
2018-02-11T11:04:08.648Z,993.61
2018-02-11T11:05:08.624Z,993.66
2018-02-11T11:06:08.625Z,993.53
2018-02-11T11:07:08.615Z,993.77
2018-02-11T11:08:08.640Z,993.64
2018-02-11T11:09:08.612Z,993.64
2018-02-11T11:10:08.625Z,993.62
2018-02-11T11:11:08.627Z,993.71
2018-02-11T11:12:08.623Z,993.85
2018-02-11T11:13:08.628Z,993.88
2018-02-11T11:14:08.629Z,993.82
2018-02-11T11:15:08.614Z,993.85
2018-02-11T11:16:08.615Z,993.98
2018-02-11T11:17:09.782Z,993.73
2018-02-11T11:18:08.616Z,994.35
2018-02-11T11:19:08.612Z,994.38
2018-02-11T11:20:08.633Z,994.48
2018-02-11T11:21:08.610Z,994.50
2018-02-11T11:22:08.609Z,994.55
2018-02-11T11:23:08.619Z,994.65
2018-02-11T11:24:08.613Z,994.03
2018-02-11T11:25:08.613Z,993.88
2018-02-11T11:26:08.623Z,994.02
2018-02-11T11:27:08.630Z,994.25
2018-02-11T11:28:08.650Z,994.19
2018-02-11T11:29:08.633Z,994.08
2018-02-11T11:30:08.664Z,993.96
2018-02-11T11:31:08.647Z,993.95
2018-02-11T11:32:08.661Z,993.84
2018-02-11T11:33:08.634Z,993.81
2018-02-11T11:34:08.640Z,993.88
2018-02-11T11:35:08.664Z,994.04
2018-02-11T11:36:08.655Z,993.96
2018-02-11T11:37:08.652Z,994.18
2018-02-11T11:38:08.902Z,993.72
2018-02-11T11:39:08.667Z,993.72
2018-02-11T11:40:08.664Z,993.85
2018-02-11T11:41:08.671Z,993.81
2018-02-11T11:42:08.670Z,993.82
2018-02-11T11:43:08.678Z,993.96
2018-02-11T11:44:08.674Z,994.23
2018-02-11T11:45:08.695Z,994.08
2018-02-11T11:46:08.680Z,993.81
2018-02-11T11:47:08.675Z,993.84
2018-02-11T11:48:08.673Z,993.91
2018-02-11T11:49:08.708Z,993.82
2018-02-11T11:50:08.705Z,993.67
2018-02-11T11:51:08.709Z,993.81
2018-02-11T11:52:08.685Z,993.92
2018-02-11T11:53:08.690Z,993.99
2018-02-11T11:54:09.495Z,993.93
2018-02-11T11:55:08.721Z,994.08
2018-02-11T11:56:08.717Z,993.95
2018-02-11T11:57:08.692Z,993.92
2018-02-11T11:58:09.432Z,993.87
2018-02-11T11:59:08.708Z,993.94
2018-02-11T12:00:08.697Z,993.96
2018-02-11T12:01:08.702Z,993.94
2018-02-11T12:02:08.700Z,993.97
2018-02-11T12:03:08.734Z,993.94
2018-02-11T12:04:08.702Z,993.86
2018-02-11T12:05:08.717Z,993.83
2018-02-11T12:06:08.723Z,993.82
2018-02-11T12:07:08.719Z,993.82
2018-02-11T12:08:08.747Z,993.83
2018-02-11T12:09:08.716Z,993.87
2018-02-11T12:10:08.719Z,993.83
2018-02-11T12:11:08.726Z,993.84
2018-02-11T12:12:09.495Z,993.83
2018-02-11T12:13:08.736Z,993.91
2018-02-11T12:14:08.720Z,993.95
2018-02-11T12:15:08.728Z,993.92
2018-02-11T12:16:08.713Z,993.75
2018-02-11T12:17:08.723Z,993.78
2018-02-11T12:18:08.728Z,993.65
2018-02-11T12:19:08.718Z,993.64
2018-02-11T12:20:08.727Z,993.69
2018-02-11T12:21:08.728Z,993.55
2018-02-11T12:22:08.732Z,993.55
2018-02-11T12:23:08.760Z,993.52
2018-02-11T12:24:08.748Z,993.57
2018-02-11T12:25:08.823Z,993.56